sensor_id;sensor_type;location;lat;lon;timestamp;pressure;altitude;pressure_sealevel;temperature;humidity
79250;BME280;68679;51.030;7.584;2023-05-31T00:01:40;99716.53;;;14.26;56.87
79250;BME280;68679;51.030;7.584;2023-05-31T00:04:05;99716.59;;;14.16;57.64
79250;BME280;68679;51.030;7.584;2023-05-31T00:06:31;99715.53;;;14.17;57.13
79250;BME280;68679;51.030;7.584;2023-05-31T00:08:57;99723.00;;;14.10;57.81
79250;BME280;68679;51.030;7.584;2023-05-31T00:11:22;99724.56;;;14.11;57.87
79250;BME280;68679;51.030;7.584;2023-05-31T00:13:47;99717.94;;;14.13;57.28
79250;BME280;68679;51.030;7.584;2023-05-31T00:16:12;99723.69;;;14.20;56.43
79250;BME280;68679;51.030;7.584;2023-05-31T00:18:38;99723.78;;;14.10;57.33
79250;BME280;68679;51.030;7.584;2023-05-31T00:21:03;99722.41;;;14.13;57.08
79250;BME280;68679;51.030;7.584;2023-05-31T00:23:30;99729.75;;;14.21;55.94
79250;BME280;68679;51.030;7.584;2023-05-31T00:25:55;99724.97;;;14.23;56.29
79250;BME280;68679;51.030;7.584;2023-05-31T00:28:20;99724.16;;;14.28;55.47
79250;BME280;68679;51.030;7.584;2023-05-31T00:30:45;99722.22;;;14.09;56.93
79250;BME280;68679;51.030;7.584;2023-05-31T00:33:11;99722.41;;;14.13;55.83
79250;BME280;68679;51.030;7.584;2023-05-31T00:35:37;99723.16;;;14.18;55.21
79250;BME280;68679;51.030;7.584;2023-05-31T00:38:05;99726.06;;;14.22;54.50
79250;BME280;68679;51.030;7.584;2023-05-31T00:40:30;99729.47;;;14.22;54.35
79250;BME280;68679;51.030;7.584;2023-05-31T00:42:56;99720.28;;;14.20;54.13
79250;BME280;68679;51.030;7.584;2023-05-31T00:45:22;99722.09;;;14.19;53.86
79250;BME280;68679;51.030;7.584;2023-05-31T00:47:47;99727.16;;;14.16;53.73
79250;BME280;68679;51.030;7.584;2023-05-31T00:50:13;99723.44;;;14.17;53.59
79250;BME280;68679;51.030;7.584;2023-05-31T00:52:39;99719.53;;;14.14;53.58
79250;BME280;68679;51.030;7.584;2023-05-31T00:55:05;99721.91;;;14.11;53.37
79250;BME280;68679;51.030;7.584;2023-05-31T00:57:31;99734.06;;;14.07;53.29
79250;BME280;68679;51.030;7.584;2023-05-31T00:59:56;99732.28;;;14.02;53.30
79250;BME280;68679;51.030;7.584;2023-05-31T01:02:22;99732.81;;;13.99;53.16
79250;BME280;68679;51.030;7.584;2023-05-31T01:04:47;99734.72;;;13.93;53.23
79250;BME280;68679;51.030;7.584;2023-05-31T01:07:13;99729.44;;;13.93;52.85
79250;BME280;68679;51.030;7.584;2023-05-31T01:09:38;99736.34;;;13.89;53.08
79250;BME280;68679;51.030;7.584;2023-05-31T01:17:57;99728.81;;;13.73;54.01
79250;BME280;68679;51.030;7.584;2023-05-31T01:20:28;99730.41;;;13.68;53.97
79250;BME280;68679;51.030;7.584;2023-05-31T01:23:03;99733.34;;;13.62;54.68
79250;BME280;68679;51.030;7.584;2023-05-31T01:25:41;99724.94;;;13.60;54.25
79250;BME280;68679;51.030;7.584;2023-05-31T01:28:12;99724.94;;;13.60;54.06
79250;BME280;68679;51.030;7.584;2023-05-31T01:30:39;99726.53;;;13.56;54.19
79250;BME280;68679;51.030;7.584;2023-05-31T01:33:08;99728.41;;;13.50;54.22
79250;BME280;68679;51.030;7.584;2023-05-31T01:35:34;99724.22;;;13.49;54.49
79250;BME280;68679;51.030;7.584;2023-05-31T01:37:59;99725.03;;;13.45;54.42
79250;BME280;68679;51.030;7.584;2023-05-31T01:40:24;99722.94;;;13.41;54.63
79250;BME280;68679;51.030;7.584;2023-05-31T01:42:51;99725.59;;;13.36;54.88
79250;BME280;68679;51.030;7.584;2023-05-31T01:45:17;99723.50;;;13.33;54.84
79250;BME280;68679;51.030;7.584;2023-05-31T01:47:44;99727.47;;;13.31;54.54
79250;BME280;68679;51.030;7.584;2023-05-31T01:50:12;99732.50;;;13.27;54.72
79250;BME280;68679;51.030;7.584;2023-05-31T01:52:38;99729.63;;;13.24;54.54
79250;BME280;68679;51.030;7.584;2023-05-31T01:55:04;99725.66;;;13.21;54.97
79250;BME280;68679;51.030;7.584;2023-05-31T01:57:30;99729.91;;;13.17;54.70
79250;BME280;68679;51.030;7.584;2023-05-31T01:59:58;99726.72;;;13.15;54.70
79250;BME280;68679;51.030;7.584;2023-05-31T02:02:25;99723.84;;;13.11;55.12
79250;BME280;68679;51.030;7.584;2023-05-31T02:05:02;99719.13;;;13.08;54.44
79250;BME280;68679;51.030;7.584;2023-05-31T02:07:27;99726.00;;;13.04;54.31
79250;BME280;68679;51.030;7.584;2023-05-31T02:09:53;99718.13;;;12.99;54.51
79250;BME280;68679;51.030;7.584;2023-05-31T02:12:18;99724.41;;;12.98;54.51
79250;BME280;68679;51.030;7.584;2023-05-31T02:14:43;99718.66;;;12.91;54.17
79250;BME280;68679;51.030;7.584;2023-05-31T02:17:09;99722.91;;;12.87;54.45
79250;BME280;68679;51.030;7.584;2023-05-31T02:19:34;99726.31;;;12.87;54.09
79250;BME280;68679;51.030;7.584;2023-05-31T02:21:59;99731.81;;;12.86;54.41
79250;BME280;68679;51.030;7.584;2023-05-31T02:24:24;99730.81;;;12.82;54.05
79250;BME280;68679;51.030;7.584;2023-05-31T02:26:52;99735.03;;;12.78;54.31
79250;BME280;68679;51.030;7.584;2023-05-31T02:29:17;99731.34;;;12.74;54.77
79250;BME280;68679;51.030;7.584;2023-05-31T02:31:43;99733.22;;;12.68;54.59
79250;BME280;68679;51.030;7.584;2023-05-31T02:34:08;99739.00;;;12.65;54.50
79250;BME280;68679;51.030;7.584;2023-05-31T02:36:34;99742.44;;;12.60;54.48
79250;BME280;68679;51.030;7.584;2023-05-31T02:38:59;99742.97;;;12.57;54.49
79250;BME280;68679;51.030;7.584;2023-05-31T02:41:25;99739.81;;;12.55;54.68
79250;BME280;68679;51.030;7.584;2023-05-31T02:43:50;99734.31;;;12.52;54.65
79250;BME280;68679;51.030;7.584;2023-05-31T02:46:15;99733.78;;;12.50;54.42
79250;BME280;68679;51.030;7.584;2023-05-31T02:48:41;99726.94;;;12.49;54.24
79250;BME280;68679;51.030;7.584;2023-05-31T02:51:06;99732.72;;;12.46;54.33
79250;BME280;68679;51.030;7.584;2023-05-31T02:53:31;99724.06;;;12.40;54.82
79250;BME280;68679;51.030;7.584;2023-05-31T02:55:57;99735.63;;;12.39;54.52
79250;BME280;68679;51.030;7.584;2023-05-31T02:58:22;99728.25;;;12.36;54.47
79250;BME280;68679;51.030;7.584;2023-05-31T03:00:47;99727.75;;;12.34;55.32
79250;BME280;68679;51.030;7.584;2023-05-31T03:03:12;99733.53;;;12.31;54.77
79250;BME280;68679;51.030;7.584;2023-05-31T03:05:38;99735.63;;;12.29;54.60
79250;BME280;68679;51.030;7.584;2023-05-31T03:08:04;99738.81;;;12.26;54.54
79250;BME280;68679;51.030;7.584;2023-05-31T03:10:29;99737.75;;;12.22;54.58
79250;BME280;68679;51.030;7.584;2023-05-31T03:12:54;99741.69;;;12.19;54.79
79250;BME280;68679;51.030;7.584;2023-05-31T03:15:20;99736.44;;;12.19;54.97
79250;BME280;68679;51.030;7.584;2023-05-31T03:17:45;99735.91;;;12.12;54.64
79250;BME280;68679;51.030;7.584;2023-05-31T03:20:11;99738.53;;;12.12;54.82
79250;BME280;68679;51.030;7.584;2023-05-31T03:22:36;99736.72;;;12.07;54.66
79250;BME280;68679;51.030;7.584;2023-05-31T03:25:03;99740.63;;;12.05;54.43
79250;BME280;68679;51.030;7.584;2023-05-31T03:27:29;99737.75;;;12.01;54.70
79250;BME280;68679;51.030;7.584;2023-05-31T03:29:55;99736.94;;;12.01;54.70
79250;BME280;68679;51.030;7.584;2023-05-31T03:32:20;99731.97;;;11.94;54.72
79250;BME280;68679;51.030;7.584;2023-05-31T03:34:46;99731.97;;;11.94;55.12
79250;BME280;68679;51.030;7.584;2023-05-31T03:37:11;99733.28;;;11.87;54.97
79250;BME280;68679;51.030;7.584;2023-05-31T03:39:36;99732.50;;;11.91;54.61
79250;BME280;68679;51.030;7.584;2023-05-31T03:42:02;99733.00;;;11.88;54.77
79250;BME280;68679;51.030;7.584;2023-05-31T03:44:27;99733.78;;;11.89;54.82
79250;BME280;68679;51.030;7.584;2023-05-31T03:46:52;99739.59;;;11.86;55.56
79250;BME280;68679;51.030;7.584;2023-05-31T03:49:18;99736.16;;;11.85;54.74
79250;BME280;68679;51.030;7.584;2023-05-31T03:51:43;99733.81;;;11.84;54.92
79250;BME280;68679;51.030;7.584;2023-05-31T03:54:09;99736.44;;;11.84;55.00
79250;BME280;68679;51.030;7.584;2023-05-31T03:56:34;99728.00;;;11.81;55.15
79250;BME280;68679;51.030;7.584;2023-05-31T03:58:59;99729.06;;;11.86;54.74
79250;BME280;68679;51.030;7.584;2023-05-31T04:01:24;99729.84;;;11.81;54.93
79250;BME280;68679;51.030;7.584;2023-05-31T04:03:50;99727.72;;;11.78;55.13
79250;BME280;68679;51.030;7.584;2023-05-31T04:06:16;99729.56;;;11.77;55.30
79250;BME280;68679;51.030;7.584;2023-05-31T04:08:41;99724.81;;;11.74;55.44
79250;BME280;68679;51.030;7.584;2023-05-31T04:11:06;99716.66;;;11.71;55.06
79250;BME280;68679;51.030;7.584;2023-05-31T04:13:31;99726.66;;;11.69;55.50
79250;BME280;68679;51.030;7.584;2023-05-31T04:15:57;99720.09;;;11.71;55.22
79250;BME280;68679;51.030;7.584;2023-05-31T04:18:22;99724.53;;;11.71;55.74
79250;BME280;68679;51.030;7.584;2023-05-31T04:20:48;99716.94;;;11.69;55.60
79250;BME280;68679;51.030;7.584;2023-05-31T04:23:13;99727.97;;;11.66;55.64
79250;BME280;68679;51.030;7.584;2023-05-31T04:25:38;99727.19;;;11.66;55.74
79250;BME280;68679;51.030;7.584;2023-05-31T04:28:04;99729.81;;;11.66;55.73
79250;BME280;68679;51.030;7.584;2023-05-31T04:30:33;99729.81;;;11.66;55.53
79250;BME280;68679;51.030;7.584;2023-05-31T04:32:59;99727.19;;;11.66;55.82
79250;BME280;68679;51.030;7.584;2023-05-31T04:35:25;99731.66;;;11.65;55.78
79250;BME280;68679;51.030;7.584;2023-05-31T04:37:54;99730.59;;;11.66;55.85
79250;BME280;68679;51.030;7.584;2023-05-31T04:40:24;99730.06;;;11.64;56.17
79250;BME280;68679;51.030;7.584;2023-05-31T04:42:49;99729.25;;;11.64;56.12
79250;BME280;68679;51.030;7.584;2023-05-31T04:45:14;99732.16;;;11.62;56.19
79250;BME280;68679;51.030;7.584;2023-05-31T04:47:40;99718.75;;;11.64;55.90
79250;BME280;68679;51.030;7.584;2023-05-31T04:50:06;99720.09;;;11.61;56.05
79250;BME280;68679;51.030;7.584;2023-05-31T04:52:31;99725.59;;;11.65;55.60
79250;BME280;68679;51.030;7.584;2023-05-31T04:54:59;99734.78;;;11.62;56.13
79250;BME280;68679;51.030;7.584;2023-05-31T04:57:25;99724.81;;;11.64;55.64
79250;BME280;68679;51.030;7.584;2023-05-31T04:59:52;99730.31;;;11.63;55.37
79250;BME280;68679;51.030;7.584;2023-05-31T05:02:17;99727.69;;;11.63;55.46
79250;BME280;68679;51.030;7.584;2023-05-31T05:04:44;99721.16;;;11.65;55.18
79250;BME280;68679;51.030;7.584;2023-05-31T05:07:09;99726.41;;;11.65;55.11
79250;BME280;68679;51.030;7.584;2023-05-31T05:09:35;99730.06;;;11.69;54.95
79250;BME280;68679;51.030;7.584;2023-05-31T05:12:00;99731.41;;;11.72;54.86
79250;BME280;68679;51.030;7.584;2023-05-31T05:14:25;99736.66;;;11.72;54.93
79250;BME280;68679;51.030;7.584;2023-05-31T05:16:50;99729.28;;;11.74;54.65
79250;BME280;68679;51.030;7.584;2023-05-31T05:19:16;99736.13;;;11.80;54.67
79250;BME280;68679;51.030;7.584;2023-05-31T05:21:41;99740.34;;;11.81;54.55
79250;BME280;68679;51.030;7.584;2023-05-31T05:24:06;99737.47;;;11.82;54.99
79250;BME280;68679;51.030;7.584;2023-05-31T05:26:32;99737.75;;;11.86;55.42
79250;BME280;68679;51.030;7.584;2023-05-31T05:28:58;99741.16;;;11.87;55.09
79250;BME280;68679;51.030;7.584;2023-05-31T05:31:23;99741.66;;;11.89;55.14
79250;BME280;68679;51.030;7.584;2023-05-31T05:33:50;99740.66;;;11.90;55.44
79250;BME280;68679;51.030;7.584;2023-05-31T05:36:15;99747.47;;;11.91;55.84
79250;BME280;68679;51.030;7.584;2023-05-31T05:38:41;99744.84;;;11.96;55.88
79250;BME280;68679;51.030;7.584;2023-05-31T05:41:06;99740.91;;;11.93;56.79
79250;BME280;68679;51.030;7.584;2023-05-31T05:43:36;99751.13;;;11.95;56.83
79250;BME280;68679;51.030;7.584;2023-05-31T05:46:01;99748.28;;;11.96;58.76
79250;BME280;68679;51.030;7.584;2023-05-31T05:48:26;99743.53;;;12.03;57.64
79250;BME280;68679;51.030;7.584;2023-05-31T05:50:51;99738.56;;;12.02;59.25
79250;BME280;68679;51.030;7.584;2023-05-31T05:53:17;99738.00;;;12.10;58.07
79250;BME280;68679;51.030;7.584;2023-05-31T05:55:50;99743.28;;;12.15;58.20
79250;BME280;68679;51.030;7.584;2023-05-31T05:58:15;99737.75;;;12.22;58.29
79250;BME280;68679;51.030;7.584;2023-05-31T06:00:42;99748.28;;;12.32;58.46
79250;BME280;68679;51.030;7.584;2023-05-31T06:03:07;99744.59;;;12.38;58.68
79250;BME280;68679;51.030;7.584;2023-05-31T06:05:33;99742.19;;;12.52;58.86
79250;BME280;68679;51.030;7.584;2023-05-31T06:07:58;99744.25;;;12.65;58.92
79250;BME280;68679;51.030;7.584;2023-05-31T06:10:23;99748.69;;;12.80;58.95
79250;BME280;68679;51.030;7.584;2023-05-31T06:12:50;99748.41;;;12.92;60.77
79250;BME280;68679;51.030;7.584;2023-05-31T06:15:15;99749.44;;;13.01;61.48
79250;BME280;68679;51.030;7.584;2023-05-31T06:17:40;99747.81;;;13.10;57.60
79250;BME280;68679;51.030;7.584;2023-05-31T06:20:06;99758.31;;;13.20;56.91
79250;BME280;68679;51.030;7.584;2023-05-31T06:22:32;99757.75;;;13.28;56.26
79250;BME280;68679;51.030;7.584;2023-05-31T06:24:57;99745.91;;;13.36;55.49
79250;BME280;68679;51.030;7.584;2023-05-31T06:27:23;99749.81;;;13.44;55.33
79250;BME280;68679;51.030;7.584;2023-05-31T06:29:48;99746.88;;;13.50;55.72
79250;BME280;68679;51.030;7.584;2023-05-31T06:32:20;99752.09;;;13.55;54.79
79250;BME280;68679;51.030;7.584;2023-05-31T06:34:46;99754.16;;;13.63;55.02
79250;BME280;68679;51.030;7.584;2023-05-31T06:37:11;99749.16;;;13.67;54.58
79250;BME280;68679;51.030;7.584;2023-05-31T06:39:36;99750.41;;;13.75;54.87
79250;BME280;68679;51.030;7.584;2023-05-31T06:42:01;99756.72;;;13.79;54.70
79250;BME280;68679;51.030;7.584;2023-05-31T06:44:27;99757.19;;;13.86;54.60
79250;BME280;68679;51.030;7.584;2023-05-31T06:46:52;99751.88;;;13.91;54.25
79250;BME280;68679;51.030;7.584;2023-05-31T06:49:18;99756.34;;;13.95;53.68
79250;BME280;68679;51.030;7.584;2023-05-31T06:51:43;99747.03;;;14.03;53.69
79250;BME280;68679;51.030;7.584;2023-05-31T06:54:08;99752.50;;;14.12;52.37
79250;BME280;68679;51.030;7.584;2023-05-31T06:56:34;99739.78;;;14.19;53.41
79250;BME280;68679;51.030;7.584;2023-05-31T06:58:59;99742.09;;;14.26;52.38
79250;BME280;68679;51.030;7.584;2023-05-31T07:01:25;99744.44;;;14.32;51.76
79250;BME280;68679;51.030;7.584;2023-05-31T07:03:50;99743.53;;;14.42;50.40
79250;BME280;68679;51.030;7.584;2023-05-31T07:06:15;99745.84;;;14.54;50.75
79250;BME280;68679;51.030;7.584;2023-05-31T07:08:41;99741.25;;;14.64;50.64
79250;BME280;68679;51.030;7.584;2023-05-31T07:11:06;99743.50;;;14.76;50.61
79250;BME280;68679;51.030;7.584;2023-05-31T07:13:31;99734.66;;;14.86;50.10
79250;BME280;68679;51.030;7.584;2023-05-31T07:15:57;99731.91;;;14.96;50.00
79250;BME280;68679;51.030;7.584;2023-05-31T07:18:22;99734.44;;;15.06;49.49
79250;BME280;68679;51.030;7.584;2023-05-31T07:20:47;99735.91;;;15.17;49.37
79250;BME280;68679;51.030;7.584;2023-05-31T07:23:12;99733.69;;;15.24;49.12
79250;BME280;68679;51.030;7.584;2023-05-31T07:25:38;99739.41;;;15.32;49.02
79250;BME280;68679;51.030;7.584;2023-05-31T07:28:03;99739.53;;;15.40;48.94
79250;BME280;68679;51.030;7.584;2023-05-31T07:30:28;99732.31;;;15.46;48.45
79250;BME280;68679;51.030;7.584;2023-05-31T07:32:54;99729.31;;;15.52;48.62
79250;BME280;68679;51.030;7.584;2023-05-31T07:35:19;99724.50;;;15.60;48.24
79250;BME280;68679;51.030;7.584;2023-05-31T07:37:44;99723.63;;;15.64;48.20
79250;BME280;68679;51.030;7.584;2023-05-31T07:40:10;99722.50;;;15.70;48.25
79250;BME280;68679;51.030;7.584;2023-05-31T07:42:36;99729.28;;;15.76;48.18
79250;BME280;68679;51.030;7.584;2023-05-31T07:45:02;99726.00;;;15.85;47.93
79250;BME280;68679;51.030;7.584;2023-05-31T07:47:29;99721.69;;;15.89;48.62
79250;BME280;68679;51.030;7.584;2023-05-31T07:49:54;99728.75;;;15.93;48.13
79250;BME280;68679;51.030;7.584;2023-05-31T07:52:19;99728.91;;;16.02;49.24
79250;BME280;68679;51.030;7.584;2023-05-31T07:54:50;99726.94;;;16.07;48.28
79250;BME280;68679;51.030;7.584;2023-05-31T07:57:15;99724.78;;;16.09;48.03
79250;BME280;68679;51.030;7.584;2023-05-31T07:59:41;99729.22;;;16.14;48.38
79250;BME280;68679;51.030;7.584;2023-05-31T08:02:06;99716.88;;;16.23;49.60
79250;BME280;68679;51.030;7.584;2023-05-31T08:04:31;99721.78;;;16.30;48.70
79250;BME280;68679;51.030;7.584;2023-05-31T08:06:57;99719.38;;;16.33;49.26
79250;BME280;68679;51.030;7.584;2023-05-31T08:09:22;99721.81;;;16.44;48.55
79250;BME280;68679;51.030;7.584;2023-05-31T08:11:48;99710.94;;;16.45;48.51
79250;BME280;68679;51.030;7.584;2023-05-31T08:14:13;99716.25;;;16.59;48.44
79250;BME280;68679;51.030;7.584;2023-05-31T08:16:38;99717.94;;;16.69;48.57
79250;BME280;68679;51.030;7.584;2023-05-31T08:19:04;99715.00;;;16.84;48.05
79250;BME280;68679;51.030;7.584;2023-05-31T08:21:30;99707.06;;;16.84;47.82
79250;BME280;68679;51.030;7.584;2023-05-31T08:23:56;99716.16;;;16.92;47.77
79250;BME280;68679;51.030;7.584;2023-05-31T08:26:23;99711.44;;;17.02;47.96
79250;BME280;68679;51.030;7.584;2023-05-31T08:28:49;99711.31;;;17.21;47.39
79250;BME280;68679;51.030;7.584;2023-05-31T08:31:14;99718.84;;;17.28;47.33
79250;BME280;68679;51.030;7.584;2023-05-31T08:33:52;99715.88;;;17.43;47.59
79250;BME280;68679;51.030;7.584;2023-05-31T08:36:18;99711.31;;;17.57;46.91
79250;BME280;68679;51.030;7.584;2023-05-31T08:38:43;99705.00;;;17.67;46.27
79250;BME280;68679;51.030;7.584;2023-05-31T08:41:08;99707.16;;;17.79;46.50
79250;BME280;68679;51.030;7.584;2023-05-31T08:43:34;99707.94;;;17.79;46.47
79250;BME280;68679;51.030;7.584;2023-05-31T08:45:59;99712.16;;;17.80;46.36
79250;BME280;68679;51.030;7.584;2023-05-31T08:48:30;99705.31;;;17.88;45.75
79250;BME280;68679;51.030;7.584;2023-05-31T08:51:01;99700.59;;;18.07;45.83
79250;BME280;68679;51.030;7.584;2023-05-31T08:53:28;99704.88;;;18.17;45.72
79250;BME280;68679;51.030;7.584;2023-05-31T08:55:53;99693.06;;;18.32;45.53
79250;BME280;68679;51.030;7.584;2023-05-31T08:58:20;99689.38;;;18.50;45.06
79250;BME280;68679;51.030;7.584;2023-05-31T09:00:45;99695.34;;;18.56;45.27
79250;BME280;68679;51.030;7.584;2023-05-31T09:03:11;99682.44;;;18.63;45.05
79250;BME280;68679;51.030;7.584;2023-05-31T09:05:37;99678.13;;;18.75;44.86
79250;BME280;68679;51.030;7.584;2023-05-31T09:08:02;99685.47;;;18.79;44.94
79250;BME280;68679;51.030;7.584;2023-05-31T09:10:28;99682.22;;;18.99;44.71
79250;BME280;68679;51.030;7.584;2023-05-31T09:12:54;99688.78;;;18.93;44.65
79250;BME280;68679;51.030;7.584;2023-05-31T09:15:23;99687.22;;;19.09;44.47
79250;BME280;68679;51.030;7.584;2023-05-31T09:17:49;99686.31;;;19.14;44.33
79250;BME280;68679;51.030;7.584;2023-05-31T09:20:15;99683.81;;;19.17;44.40
79250;BME280;68679;51.030;7.584;2023-05-31T09:22:40;99679.13;;;19.32;43.92
79250;BME280;68679;51.030;7.584;2023-05-31T09:25:05;99676.28;;;19.45;44.24
79250;BME280;68679;51.030;7.584;2023-05-31T09:27:37;99672.56;;;19.64;44.23
79250;BME280;68679;51.030;7.584;2023-05-31T09:30:06;99670.84;;;19.68;43.90
79250;BME280;68679;51.030;7.584;2023-05-31T09:32:34;99667.81;;;19.87;44.05
79250;BME280;68679;51.030;7.584;2023-05-31T09:35:16;99663.59;;;19.86;44.17
79250;BME280;68679;51.030;7.584;2023-05-31T09:37:46;99664.34;;;19.95;44.18
79250;BME280;68679;51.030;7.584;2023-05-31T09:40:13;99669.19;;;20.01;43.95
79250;BME280;68679;51.030;7.584;2023-05-31T09:42:46;99665.72;;;20.09;43.80
79250;BME280;68679;51.030;7.584;2023-05-31T09:45:11;99666.47;;;20.19;43.49
79250;BME280;68679;51.030;7.584;2023-05-31T09:47:37;99656.53;;;19.90;42.74
79250;BME280;68679;51.030;7.584;2023-05-31T09:50:03;99661.06;;;19.89;42.95
79250;BME280;68679;51.030;7.584;2023-05-31T09:52:29;99659.63;;;20.09;43.02
79250;BME280;68679;51.030;7.584;2023-05-31T09:54:56;99643.00;;;20.21;43.23
79250;BME280;68679;51.030;7.584;2023-05-31T09:57:36;99652.72;;;20.08;42.73
79250;BME280;68679;51.030;7.584;2023-05-31T10:02:53;99647.34;;;20.25;42.30
79250;BME280;68679;51.030;7.584;2023-05-31T10:05:20;99645.69;;;20.42;42.81
79250;BME280;68679;51.030;7.584;2023-05-31T10:07:47;99641.88;;;20.60;42.46
79250;BME280;68679;51.030;7.584;2023-05-31T10:10:13;99644.34;;;20.65;42.24
79250;BME280;68679;51.030;7.584;2023-05-31T10:12:48;99640.72;;;20.70;42.31
79250;BME280;68679;51.030;7.584;2023-05-31T10:15:17;99646.00;;;20.78;42.32
79250;BME280;68679;51.030;7.584;2023-05-31T10:17:48;99633.78;;;20.77;42.04
79250;BME280;68679;51.030;7.584;2023-05-31T10:20:16;99633.06;;;20.89;41.79
79250;BME280;68679;51.030;7.584;2023-05-31T10:22:43;99631.25;;;21.02;41.99
79250;BME280;68679;51.030;7.584;2023-05-31T10:25:26;99624.38;;;21.01;41.19
79250;BME280;68679;51.030;7.584;2023-05-31T10:27:53;99621.88;;;20.96;41.99
79250;BME280;68679;51.030;7.584;2023-05-31T10:30:21;99628.00;;;20.96;42.02
79250;BME280;68679;51.030;7.584;2023-05-31T10:33:00;99621.03;;;21.04;41.32
79250;BME280;68679;51.030;7.584;2023-05-31T10:35:29;99618.09;;;20.97;40.70
79250;BME280;68679;51.030;7.584;2023-05-31T10:37:55;99605.81;;;21.04;41.37
79250;BME280;68679;51.030;7.584;2023-05-31T10:40:32;99608.03;;;21.02;39.89
79250;BME280;68679;51.030;7.584;2023-05-31T10:43:20;99601.13;;;21.01;39.74
79250;BME280;68679;51.030;7.584;2023-05-31T10:46:14;99594.94;;;21.09;39.46
79250;BME280;68679;51.030;7.584;2023-05-31T10:48:46;99597.28;;;21.32;40.40
79250;BME280;68679;51.030;7.584;2023-05-31T10:51:16;99593.69;;;21.49;40.08
79250;BME280;68679;51.030;7.584;2023-05-31T10:53:43;99599.06;;;21.61;40.34
79250;BME280;68679;51.030;7.584;2023-05-31T10:56:11;99599.09;;;21.73;40.82
79250;BME280;68679;51.030;7.584;2023-05-31T11:01:14;99604.72;;;21.72;40.32
79250;BME280;68679;51.030;7.584;2023-05-31T11:03:53;99591.88;;;21.86;40.43
79250;BME280;68679;51.030;7.584;2023-05-31T11:06:25;99602.78;;;21.93;40.05
79250;BME280;68679;51.030;7.584;2023-05-31T11:09:11;99583.00;;;22.18;39.97
79250;BME280;68679;51.030;7.584;2023-05-31T11:14:09;99582.44;;;22.25;40.08
79250;BME280;68679;51.030;7.584;2023-05-31T11:19:15;99578.75;;;22.05;39.66
79250;BME280;68679;51.030;7.584;2023-05-31T11:21:51;99576.44;;;22.28;39.30
79250;BME280;68679;51.030;7.584;2023-05-31T11:24:36;99578.53;;;22.47;39.57
79250;BME280;68679;51.030;7.584;2023-05-31T11:27:04;99569.50;;;22.52;39.58
79250;BME280;68679;51.030;7.584;2023-05-31T11:32:19;99563.59;;;22.86;39.36
79250;BME280;68679;51.030;7.584;2023-05-31T11:37:15;99562.03;;;22.97;39.17
79250;BME280;68679;51.030;7.584;2023-05-31T11:39:44;99563.28;;;23.00;39.54
79250;BME280;68679;51.030;7.584;2023-05-31T11:42:10;99555.72;;;22.90;38.56
79250;BME280;68679;51.030;7.584;2023-05-31T11:44:41;99557.19;;;22.87;39.00
79250;BME280;68679;51.030;7.584;2023-05-31T11:47:09;99559.16;;;22.90;38.50
79250;BME280;68679;51.030;7.584;2023-05-31T11:49:35;99549.91;;;23.16;38.70
79250;BME280;68679;51.030;7.584;2023-05-31T11:52:02;99545.53;;;23.23;38.51
79250;BME280;68679;51.030;7.584;2023-05-31T11:54:30;99543.38;;;23.29;38.11
79250;BME280;68679;51.030;7.584;2023-05-31T11:57:03;99541.03;;;23.12;38.42
79250;BME280;68679;51.030;7.584;2023-05-31T11:59:36;99540.94;;;23.08;38.38
79250;BME280;68679;51.030;7.584;2023-05-31T12:02:06;99533.38;;;23.26;37.78
79250;BME280;68679;51.030;7.584;2023-05-31T12:06:58;99537.88;;;23.38;38.31
79250;BME280;68679;51.030;7.584;2023-05-31T12:09:27;99533.91;;;23.47;37.85
79250;BME280;68679;51.030;7.584;2023-05-31T12:11:54;99526.44;;;23.69;37.03
79250;BME280;68679;51.030;7.584;2023-05-31T12:14:20;99530.00;;;23.73;37.37
79250;BME280;68679;51.030;7.584;2023-05-31T12:16:48;99526.25;;;23.77;37.42
79250;BME280;68679;51.030;7.584;2023-05-31T12:19:14;99518.47;;;23.88;37.25
79250;BME280;68679;51.030;7.584;2023-05-31T12:21:41;99518.56;;;23.76;37.35
79250;BME280;68679;51.030;7.584;2023-05-31T12:24:14;99510.53;;;23.92;37.50
79250;BME280;68679;51.030;7.584;2023-05-31T12:26:39;99512.25;;;23.84;37.72
79250;BME280;68679;51.030;7.584;2023-05-31T12:29:06;99505.16;;;23.76;37.05
79250;BME280;68679;51.030;7.584;2023-05-31T12:31:36;99511.56;;;23.87;36.59
79250;BME280;68679;51.030;7.584;2023-05-31T12:36:37;99509.69;;;24.23;36.69
79250;BME280;68679;51.030;7.584;2023-05-31T12:39:07;99515.25;;;23.98;36.97
79250;BME280;68679;51.030;7.584;2023-05-31T12:41:33;99515.06;;;24.07;36.35
79250;BME280;68679;51.030;7.584;2023-05-31T12:43:58;99495.84;;;24.21;35.97
79250;BME280;68679;51.030;7.584;2023-05-31T12:46:24;99503.34;;;24.31;36.08
79250;BME280;68679;51.030;7.584;2023-05-31T12:48:49;99499.13;;;24.14;35.43
79250;BME280;68679;51.030;7.584;2023-05-31T12:51:24;99494.13;;;24.13;35.38
79250;BME280;68679;51.030;7.584;2023-05-31T12:53:49;99503.28;;;24.27;36.48
79250;BME280;68679;51.030;7.584;2023-05-31T12:56:15;99498.50;;;24.37;35.63
79250;BME280;68679;51.030;7.584;2023-05-31T12:58:41;99495.13;;;24.04;35.61
79250;BME280;68679;51.030;7.584;2023-05-31T13:01:07;99490.41;;;24.17;35.59
79250;BME280;68679;51.030;7.584;2023-05-31T13:03:33;99493.94;;;24.21;35.43
79250;BME280;68679;51.030;7.584;2023-05-31T13:05:58;99492.88;;;24.26;35.61
79250;BME280;68679;51.030;7.584;2023-05-31T13:08:23;99482.47;;;24.21;35.30
79250;BME280;68679;51.030;7.584;2023-05-31T13:10:48;99484.16;;;24.29;35.29
79250;BME280;68679;51.030;7.584;2023-05-31T13:13:14;99487.38;;;24.34;36.05
79250;BME280;68679;51.030;7.584;2023-05-31T13:15:40;99483.63;;;24.39;35.65
79250;BME280;68679;51.030;7.584;2023-05-31T13:18:05;99486.06;;;24.28;34.70
79250;BME280;68679;51.030;7.584;2023-05-31T13:20:31;99483.28;;;24.25;33.97
79250;BME280;68679;51.030;7.584;2023-05-31T13:22:56;99484.47;;;24.43;35.56
79250;BME280;68679;51.030;7.584;2023-05-31T13:25:22;99482.56;;;24.44;35.86